createdAt,value
2019-05-30T00:00:17.528Z,1.77
2019-05-30T00:02:43.287Z,3.05
2019-05-30T00:05:14.307Z,1.95
2019-05-30T00:07:44.325Z,1.82
2019-05-30T00:10:13.157Z,1.98
2019-05-30T00:12:41.779Z,2.20
2019-05-30T00:15:11.856Z,2.83
2019-05-30T00:17:40.480Z,2.55
2019-05-30T00:20:11.140Z,3.02
2019-05-30T00:22:39.754Z,5.20
2019-05-30T00:25:11.008Z,4.87
2019-05-30T00:27:39.613Z,2.70
2019-05-30T00:30:23.124Z,6.47
2019-05-30T00:32:40.197Z,1.87
2019-05-30T00:35:09.063Z,3.65
2019-05-30T00:37:38.271Z,3.42
2019-05-30T00:40:09.543Z,6.70
2019-05-30T00:42:39.032Z,3.20
2019-05-30T00:45:20.519Z,4.72
2019-05-30T00:47:39.883Z,4.47
2019-05-30T00:50:09.280Z,3.05
2019-05-30T00:52:38.343Z,4.08
2019-05-30T00:55:08.811Z,3.33
2019-05-30T00:57:37.403Z,3.75
2019-05-30T01:00:09.679Z,5.12
2019-05-30T01:02:38.956Z,7.15
2019-05-30T01:05:10.202Z,3.95
2019-05-30T01:07:38.831Z,4.62
2019-05-30T01:10:10.563Z,5.83
2019-05-30T01:12:39.193Z,5.72
2019-05-30T01:15:09.944Z,8.88
2019-05-30T01:17:38.957Z,5.55
2019-05-30T01:20:08.309Z,3.85
2019-05-30T01:22:37.014Z,5.17
2019-05-30T01:25:07.921Z,5.60
2019-05-30T01:27:38.377Z,7.67
2019-05-30T01:30:08.417Z,8.65
2019-05-30T01:32:37.135Z,4.75
2019-05-30T01:35:08.101Z,7.55
2019-05-30T01:37:38.585Z,5.05
2019-05-30T01:40:09.429Z,9.33
2019-05-30T01:42:40.194Z,7.70
2019-05-30T01:45:10.458Z,8.45
2019-05-30T01:47:39.138Z,4.97
2019-05-30T01:50:09.855Z,6.97
2019-05-30T01:52:38.714Z,5.75
2019-05-30T01:55:09.329Z,5.62
2019-05-30T01:57:39.518Z,5.90
2019-05-30T02:00:20.248Z,6.00
2019-05-30T02:02:41.587Z,9.83
2019-05-30T02:05:11.469Z,6.65
2019-05-30T02:07:40.243Z,6.08
2019-05-30T02:10:12.054Z,9.83
2019-05-30T02:12:40.709Z,6.90
2019-05-30T02:15:10.140Z,5.58
2019-05-30T02:17:39.858Z,7.65
2019-05-30T02:20:09.989Z,5.08
2019-05-30T02:22:38.811Z,8.93
2019-05-30T02:25:08.245Z,9.18
2019-05-30T02:27:37.488Z,7.10
2019-05-30T02:30:12.336Z,7.37
2019-05-30T02:32:39.380Z,8.65
2019-05-30T02:35:10.285Z,10.90
2019-05-30T02:37:38.961Z,11.35
2019-05-30T02:40:12.396Z,9.45
2019-05-30T02:42:39.647Z,11.80
2019-05-30T02:45:11.795Z,11.10
2019-05-30T02:47:38.967Z,8.13
2019-05-30T02:50:10.450Z,12.20
2019-05-30T02:52:38.760Z,9.88
2019-05-30T02:55:10.943Z,7.62
2019-05-30T02:57:39.602Z,9.33
2019-05-30T03:00:13.857Z,13.65
2019-05-30T03:02:39.946Z,9.03
2019-05-30T03:05:12.813Z,9.05
2019-05-30T03:07:40.496Z,9.10
2019-05-30T03:10:14.377Z,9.78
2019-05-30T03:12:41.056Z,7.42
2019-05-30T03:15:12.463Z,8.85
2019-05-30T03:17:40.511Z,7.78
2019-05-30T03:20:20.623Z,9.13
2019-05-30T03:22:40.811Z,12.33
2019-05-30T03:25:12.974Z,9.83
2019-05-30T03:27:40.415Z,10.82
2019-05-30T03:30:18.305Z,9.15
2019-05-30T03:33:04.190Z,9.95
2019-05-30T03:35:23.732Z,10.63
2019-05-30T03:37:41.553Z,9.75
2019-05-30T03:40:10.877Z,9.60
2019-05-30T03:42:41.868Z,9.38
2019-05-30T03:45:13.602Z,13.10
2019-05-30T03:47:43.936Z,12.40
2019-05-30T03:50:17.428Z,13.35
2019-05-30T03:52:46.701Z,9.63
2019-05-30T03:55:19.512Z,12.73
2019-05-30T04:00:29.872Z,13.78
2019-05-30T04:03:06.806Z,13.38
2019-05-30T04:05:45.878Z,14.60
2019-05-30T04:08:17.099Z,11.05
2019-05-30T04:10:48.795Z,9.35
2019-05-30T04:13:26.196Z,17.55
2019-05-30T04:15:54.795Z,13.38
2019-05-30T04:18:23.452Z,8.70
2019-05-30T04:20:52.069Z,12.23
2019-05-30T04:23:20.669Z,9.93
2019-05-30T04:25:49.303Z,11.55
2019-05-30T04:28:18.727Z,12.45
2019-05-30T04:30:47.596Z,8.65
2019-05-30T04:33:29.190Z,11.33
2019-05-30T04:35:47.043Z,10.35
2019-05-30T04:38:19.246Z,10.05
2019-05-30T04:40:48.069Z,9.05
2019-05-30T04:43:18.455Z,9.20
2019-05-30T04:45:49.588Z,9.60
2019-05-30T04:48:21.353Z,9.18
2019-05-30T04:50:50.321Z,8.15
2019-05-30T04:53:21.006Z,12.80
2019-05-30T04:55:49.848Z,11.68
2019-05-30T04:58:20.982Z,9.65
2019-05-30T05:00:48.958Z,9.58
2019-05-30T05:03:40.600Z,8.58
2019-05-30T05:05:47.985Z,8.70
2019-05-30T05:08:17.983Z,8.60
2019-05-30T05:10:47.648Z,9.30
2019-05-30T05:13:16.355Z,11.50
2019-05-30T05:15:45.111Z,10.13
2019-05-30T05:18:14.981Z,8.10
2019-05-30T05:20:44.677Z,12.43
2019-05-30T05:23:13.330Z,11.88
2019-05-30T05:25:42.022Z,13.95
2019-05-30T05:28:10.651Z,10.95
2019-05-30T05:30:39.306Z,9.95
2019-05-30T05:33:08.094Z,11.65
2019-05-30T05:35:36.992Z,16.52
2019-05-30T05:38:06.354Z,18.25
2019-05-30T05:40:35.014Z,13.40
2019-05-30T05:43:03.721Z,11.53
2019-05-30T05:45:32.338Z,19.85
2019-05-30T05:48:00.973Z,15.85
2019-05-30T05:50:29.621Z,10.60
2019-05-30T05:52:58.299Z,15.08
2019-05-30T05:55:26.993Z,9.23
2019-05-30T05:57:55.614Z,10.70
2019-05-30T06:00:25.277Z,8.30
2019-05-30T06:02:54.734Z,13.28
2019-05-30T06:05:24.306Z,8.50
2019-05-30T06:07:53.202Z,9.93
2019-05-30T06:10:23.741Z,9.08
2019-05-30T06:12:53.622Z,8.78
2019-05-30T06:15:22.947Z,11.08
2019-05-30T06:17:51.739Z,10.45
2019-05-30T06:20:21.245Z,8.98
2019-05-30T06:22:51.235Z,9.38
2019-05-30T06:25:24.003Z,10.05
2019-05-30T06:27:50.263Z,7.47
2019-05-30T06:30:20.390Z,10.70
2019-05-30T06:32:49.807Z,15.40
2019-05-30T06:35:21.410Z,11.60
2019-05-30T06:37:50.169Z,9.43
2019-05-30T06:40:21.358Z,10.50
2019-05-30T06:42:50.116Z,12.00
2019-05-30T06:45:20.619Z,9.43
2019-05-30T06:47:49.286Z,8.20
2019-05-30T06:50:18.060Z,6.72
2019-05-30T06:52:47.183Z,8.33
2019-05-30T06:55:15.946Z,8.28
2019-05-30T06:57:44.538Z,10.55
2019-05-30T07:00:13.855Z,12.63
2019-05-30T07:02:42.542Z,7.85
2019-05-30T07:05:12.756Z,6.78
2019-05-30T07:07:42.378Z,11.18
2019-05-30T07:10:13.177Z,10.38
2019-05-30T07:12:42.820Z,8.85
2019-05-30T07:15:14.721Z,9.60
2019-05-30T07:17:43.406Z,13.73
2019-05-30T07:20:11.931Z,8.70
2019-05-30T07:22:40.299Z,10.30
2019-05-30T07:25:08.825Z,8.80
2019-05-30T07:27:37.186Z,9.13
2019-05-30T07:30:07.403Z,11.88
2019-05-30T07:32:36.032Z,9.88
2019-05-30T07:35:07.708Z,10.00
2019-05-30T07:37:39.394Z,9.13
2019-05-30T07:40:10.246Z,13.38
2019-05-30T07:42:39.283Z,11.90
2019-05-30T07:45:10.650Z,11.80
2019-05-30T07:47:39.254Z,11.53
2019-05-30T07:50:09.528Z,12.37
2019-05-30T07:52:39.039Z,9.95
2019-05-30T07:55:10.602Z,11.33
2019-05-30T07:57:41.216Z,9.28
2019-05-30T08:00:10.546Z,9.48
2019-05-30T08:02:38.835Z,12.28
2019-05-30T08:05:22.763Z,8.95
2019-05-30T08:07:37.486Z,12.93
2019-05-30T08:10:09.203Z,9.73
2019-05-30T08:12:39.219Z,9.85
2019-05-30T08:15:08.597Z,13.30
2019-05-30T08:17:39.180Z,15.05
2019-05-30T08:20:08.505Z,10.18
2019-05-30T08:22:36.808Z,13.00
2019-05-30T08:25:07.010Z,10.80
2019-05-30T08:27:36.459Z,10.23
2019-05-30T08:30:06.709Z,11.43
2019-05-30T08:32:35.300Z,10.98
2019-05-30T08:35:08.534Z,13.15
2019-05-30T08:37:37.497Z,11.40
2019-05-30T08:40:09.202Z,12.35
2019-05-30T08:42:38.491Z,13.48
2019-05-30T08:45:10.011Z,11.33
2019-05-30T08:47:38.609Z,10.13
2019-05-30T08:50:08.416Z,12.60
2019-05-30T08:52:36.723Z,13.80
2019-05-30T08:55:06.900Z,13.62
2019-05-30T08:57:36.522Z,11.10
2019-05-30T09:00:06.424Z,14.25
2019-05-30T09:02:36.636Z,11.18
2019-05-30T09:05:06.974Z,10.72
2019-05-30T09:07:36.584Z,16.77
2019-05-30T09:10:06.374Z,14.10
2019-05-30T09:12:37.578Z,15.43
2019-05-30T09:15:06.555Z,13.48
2019-05-30T09:17:35.179Z,13.22
2019-05-30T09:20:05.849Z,11.78
2019-05-30T09:22:34.175Z,12.98
2019-05-30T09:25:02.548Z,14.98
2019-05-30T09:27:33.165Z,11.28
2019-05-30T09:30:01.453Z,14.53
2019-05-30T09:32:31.052Z,12.73
2019-05-30T09:35:01.073Z,13.28
2019-05-30T09:37:31.082Z,10.68
2019-05-30T09:39:59.438Z,16.07
2019-05-30T09:42:27.742Z,11.53
2019-05-30T09:44:56.079Z,15.85
2019-05-30T09:47:24.723Z,13.45
2019-05-30T09:49:52.982Z,14.93
2019-05-30T09:52:21.248Z,15.00
2019-05-30T09:54:50.305Z,14.95
2019-05-30T09:57:19.030Z,14.68
2019-05-30T09:59:48.530Z,17.45
2019-05-30T10:02:17.353Z,13.08
2019-05-30T10:04:46.816Z,14.47
2019-05-30T10:07:16.225Z,14.63
2019-05-30T10:09:45.626Z,16.97
2019-05-30T10:12:14.956Z,13.85
2019-05-30T10:14:45.643Z,15.95
2019-05-30T10:17:17.320Z,13.88
2019-05-30T10:19:47.141Z,16.37
2019-05-30T10:22:17.004Z,15.13
2019-05-30T10:24:46.309Z,13.70
2019-05-30T10:27:15.326Z,14.25
2019-05-30T10:29:43.599Z,14.38
2019-05-30T10:32:11.963Z,14.73
2019-05-30T10:34:40.305Z,14.78
2019-05-30T10:37:08.674Z,13.62
2019-05-30T10:39:38.855Z,14.03
2019-05-30T10:42:08.368Z,14.38
2019-05-30T10:44:36.945Z,19.75
2019-05-30T10:47:05.278Z,16.50
2019-05-30T10:49:35.047Z,16.00
2019-05-30T10:52:03.651Z,16.30
2019-05-30T10:54:32.022Z,14.90
2019-05-30T10:57:00.914Z,13.80
2019-05-30T10:59:29.462Z,16.23
2019-05-30T11:01:57.830Z,15.58
2019-05-30T11:04:26.098Z,17.62
2019-05-30T11:07:07.582Z,17.23
2019-05-30T11:09:27.417Z,14.95
2019-05-30T11:11:57.091Z,18.23
2019-05-30T11:14:25.844Z,14.53
2019-05-30T11:16:55.518Z,16.17
2019-05-30T11:19:24.073Z,14.90
2019-05-30T11:21:54.485Z,13.30
2019-05-30T11:24:22.791Z,16.52
2019-05-30T11:26:52.153Z,14.07
2019-05-30T11:29:21.783Z,15.55
2019-05-30T11:31:50.736Z,16.65
2019-05-30T11:34:20.783Z,14.98
2019-05-30T11:36:49.481Z,15.45
2019-05-30T11:39:18.023Z,15.53
2019-05-30T11:41:46.322Z,16.12
2019-05-30T11:44:14.615Z,15.08
2019-05-30T11:46:42.878Z,18.73
2019-05-30T11:49:11.178Z,14.78
2019-05-30T11:51:39.438Z,14.75
2019-05-30T11:54:07.839Z,15.45
2019-05-30T11:56:36.138Z,15.83
2019-05-30T11:59:04.502Z,18.57
2019-05-30T12:01:32.850Z,16.40
2019-05-30T12:04:01.189Z,13.18
2019-05-30T12:06:29.487Z,17.23
2019-05-30T12:08:58.936Z,16.97
2019-05-30T12:11:28.358Z,15.53
2019-05-30T12:13:57.417Z,18.45
2019-05-30T12:16:26.295Z,13.65
2019-05-30T12:18:59.613Z,18.37
2019-05-30T12:21:29.749Z,15.33
2019-05-30T12:23:58.041Z,15.75
2019-05-30T12:26:26.378Z,14.63
2019-05-30T12:28:54.686Z,15.25
2019-05-30T12:31:23.202Z,17.10
2019-05-30T12:33:54.092Z,16.55
2019-05-30T12:36:24.763Z,15.58
2019-05-30T12:38:54.319Z,12.95
2019-05-30T12:41:23.642Z,13.70
2019-05-30T12:43:53.019Z,14.53
2019-05-30T12:46:22.697Z,15.63
2019-05-30T12:48:51.612Z,22.13
2019-05-30T12:51:20.814Z,15.45
2019-05-30T12:53:50.696Z,15.35
2019-05-30T12:56:19.399Z,17.90
2019-05-30T12:58:48.670Z,12.58
2019-05-30T13:01:17.521Z,14.95
2019-05-30T13:03:46.190Z,13.10
2019-05-30T13:06:15.038Z,13.60
2019-05-30T13:08:44.487Z,15.25
2019-05-30T13:11:14.653Z,13.93
2019-05-30T13:13:43.851Z,16.07
2019-05-30T13:16:12.547Z,12.43
2019-05-30T13:18:41.217Z,13.95
2019-05-30T13:21:10.103Z,17.00
2019-05-30T13:23:38.858Z,17.07
2019-05-30T13:26:07.626Z,16.57
2019-05-30T13:28:36.280Z,16.97
2019-05-30T13:31:05.048Z,15.68
2019-05-30T13:33:33.793Z,18.05
2019-05-30T13:36:03.124Z,17.77
2019-05-30T13:38:32.014Z,16.45
2019-05-30T13:41:01.502Z,19.30
2019-05-30T13:43:30.495Z,16.70
2019-05-30T13:46:00.162Z,15.18
2019-05-30T13:48:30.566Z,16.60
2019-05-30T13:50:58.904Z,13.68
2019-05-30T13:53:27.207Z,16.87
2019-05-30T13:55:55.543Z,16.57
2019-05-30T13:58:23.851Z,18.07
2019-05-30T14:00:52.465Z,15.63
2019-05-30T14:03:20.850Z,15.38
2019-05-30T14:05:49.182Z,15.18
2019-05-30T14:08:17.482Z,18.65
2019-05-30T14:10:46.494Z,16.67
2019-05-30T14:13:14.803Z,14.95
2019-05-30T14:15:43.395Z,15.70
2019-05-30T14:18:12.843Z,16.62
2019-05-30T14:20:41.984Z,15.00
2019-05-30T14:23:11.788Z,16.62
2019-05-30T14:25:41.867Z,19.73
2019-05-30T14:28:12.159Z,15.48
2019-05-30T14:30:40.914Z,14.58
2019-05-30T14:33:10.122Z,15.43
2019-05-30T14:35:38.752Z,15.63
2019-05-30T14:38:07.033Z,16.23
2019-05-30T14:40:35.391Z,15.58
2019-05-30T14:43:05.145Z,13.22
2019-05-30T14:45:34.379Z,14.78
2019-05-30T14:48:04.401Z,15.25
2019-05-30T14:50:33.665Z,13.22
2019-05-30T14:53:02.580Z,15.55
2019-05-30T14:55:31.255Z,13.65
2019-05-30T14:58:00.227Z,17.62
2019-05-30T15:00:28.829Z,19.80
2019-05-30T15:02:57.474Z,15.00
2019-05-30T15:05:25.738Z,16.65
2019-05-30T15:07:54.349Z,18.87
2019-05-30T15:10:22.725Z,16.52
2019-05-30T15:12:52.267Z,20.75
2019-05-30T15:15:21.832Z,17.00
2019-05-30T15:17:50.118Z,21.45
2019-05-30T15:20:18.677Z,15.25
2019-05-30T15:22:47.050Z,17.77
2019-05-30T15:25:16.475Z,16.60
2019-05-30T15:27:45.734Z,17.98
2019-05-30T15:30:14.727Z,16.42
2019-05-30T15:32:43.358Z,15.48
2019-05-30T15:35:15.528Z,16.77
2019-05-30T15:37:44.076Z,16.52
2019-05-30T15:40:13.510Z,16.40
2019-05-30T15:42:42.285Z,14.35
2019-05-30T15:45:13.942Z,16.70
2019-05-30T15:47:42.667Z,16.02
2019-05-30T15:50:12.305Z,17.50
2019-05-30T15:52:42.380Z,15.95
2019-05-30T15:55:13.237Z,18.17
2019-05-30T15:57:42.507Z,15.53
2019-05-30T16:00:14.058Z,19.25
2019-05-30T16:05:12.590Z,16.05
2019-05-30T16:07:40.926Z,17.48
2019-05-30T16:10:14.767Z,16.85
2019-05-30T16:12:44.147Z,18.37
2019-05-30T16:15:13.537Z,20.43
2019-05-30T16:17:44.407Z,19.45
2019-05-30T16:20:13.898Z,20.92
2019-05-30T16:22:43.865Z,16.75
2019-05-30T16:25:13.715Z,16.75
2019-05-30T16:27:43.418Z,18.95
2019-05-30T16:30:12.481Z,18.25
2019-05-30T16:32:42.156Z,21.40
2019-05-30T16:35:10.587Z,18.98
2019-05-30T16:37:39.290Z,20.82
2019-05-30T16:40:11.043Z,23.65
2019-05-30T16:42:40.054Z,20.10
2019-05-30T16:45:11.588Z,19.98
2019-05-30T16:47:40.299Z,21.85
2019-05-30T16:50:09.645Z,22.67
2019-05-30T16:52:38.414Z,24.25
2019-05-30T16:55:11.564Z,24.00
2019-05-30T16:57:40.201Z,27.02
2019-05-30T17:00:11.199Z,23.67
2019-05-30T17:02:40.443Z,22.35
2019-05-30T17:05:10.322Z,21.50
2019-05-30T17:07:40.167Z,26.30
2019-05-30T17:10:22.438Z,25.15
2019-05-30T17:12:40.291Z,25.17
2019-05-30T17:15:11.879Z,26.77
2019-05-30T17:17:42.071Z,25.68
2019-05-30T17:20:13.729Z,25.12
2019-05-30T17:22:42.685Z,24.95
2019-05-30T17:25:12.323Z,26.37
2019-05-30T17:27:41.761Z,26.50
2019-05-30T17:30:12.190Z,24.70
2019-05-30T17:32:40.900Z,26.20
2019-05-30T17:35:09.594Z,27.07
2019-05-30T17:37:38.298Z,31.05
2019-05-30T17:40:18.570Z,24.87
2019-05-30T17:42:48.429Z,31.15
2019-05-30T17:45:19.039Z,28.10
2019-05-30T17:47:58.144Z,33.02
2019-05-30T17:50:19.930Z,27.45
2019-05-30T17:52:49.365Z,27.13
2019-05-30T17:55:18.310Z,25.82
2019-05-30T17:57:48.841Z,27.80
2019-05-30T18:00:18.401Z,25.12
2019-05-30T18:02:47.007Z,27.10
2019-05-30T18:05:16.159Z,25.88
2019-05-30T18:07:45.017Z,23.57
2019-05-30T18:10:16.736Z,27.67
2019-05-30T18:12:46.071Z,26.83
2019-05-30T18:15:17.628Z,25.27
2019-05-30T18:17:46.326Z,27.00
2019-05-30T18:20:16.625Z,28.17
2019-05-30T18:22:45.261Z,27.10
2019-05-30T18:25:14.970Z,26.02
2019-05-30T18:27:43.647Z,25.57
2019-05-30T18:30:13.675Z,24.25
2019-05-30T18:32:43.697Z,23.77
2019-05-30T18:35:13.807Z,22.95
2019-05-30T18:37:42.588Z,24.37
2019-05-30T18:40:14.048Z,20.52
2019-05-30T18:42:42.692Z,19.77
2019-05-30T18:45:13.363Z,23.27
2019-05-30T18:47:41.991Z,21.87
2019-05-30T18:50:11.017Z,21.42
2019-05-30T18:52:39.639Z,20.25
2019-05-30T18:55:09.682Z,19.92
2019-05-30T18:57:38.609Z,20.60
2019-05-30T19:00:14.023Z,19.00
2019-05-30T19:02:41.972Z,20.48
2019-05-30T19:05:10.652Z,20.20
2019-05-30T19:07:39.998Z,15.13
2019-05-30T19:10:10.255Z,16.10
2019-05-30T19:12:38.886Z,16.62
2019-05-30T19:15:08.119Z,17.27
2019-05-30T19:17:37.520Z,15.70
2019-05-30T19:20:09.227Z,17.77
2019-05-30T19:22:41.252Z,17.53
2019-05-30T19:25:08.889Z,15.90
2019-05-30T19:27:38.583Z,16.48
2019-05-30T19:30:10.274Z,16.77
2019-05-30T19:32:39.882Z,16.30
2019-05-30T19:35:11.848Z,17.70
2019-05-30T19:37:40.559Z,29.90
2019-05-30T19:40:09.991Z,20.90
2019-05-30T19:42:39.240Z,18.10
2019-05-30T19:45:09.778Z,17.55
2019-05-30T19:47:39.915Z,19.85
2019-05-30T19:50:09.298Z,16.37
2019-05-30T19:52:39.252Z,17.23
2019-05-30T19:55:09.930Z,16.27
2019-05-30T19:57:39.890Z,18.45
2019-05-30T20:00:12.410Z,16.82
2019-05-30T20:02:41.666Z,15.37
2019-05-30T20:05:11.431Z,15.45
2019-05-30T20:07:40.878Z,12.58
2019-05-30T20:10:14.739Z,13.48
2019-05-30T20:12:43.370Z,13.60
2019-05-30T20:15:14.190Z,11.83
2019-05-30T20:17:43.360Z,14.45
2019-05-30T20:20:13.851Z,15.32
2019-05-30T20:22:42.583Z,14.43
2019-05-30T20:25:12.755Z,13.65
2019-05-30T20:27:41.351Z,12.93
2019-05-30T20:30:11.571Z,14.43
2019-05-30T20:32:40.872Z,10.45
2019-05-30T20:35:09.882Z,11.90
2019-05-30T20:37:38.790Z,12.70
2019-05-30T20:40:09.711Z,10.43
2019-05-30T20:42:39.014Z,11.43
2019-05-30T20:45:10.102Z,11.15
2019-05-30T20:47:42.208Z,9.75
2019-05-30T20:50:14.888Z,8.73
2019-05-30T20:52:45.296Z,10.10
2019-05-30T20:55:14.003Z,12.75
2019-05-30T20:57:43.474Z,7.58
2019-05-30T21:00:14.208Z,8.88
2019-05-30T21:02:43.709Z,8.18
2019-05-30T21:05:14.844Z,7.05
2019-05-30T21:07:44.243Z,6.05
2019-05-30T21:10:15.212Z,8.60
2019-05-30T21:12:49.259Z,8.03
2019-05-30T21:15:18.129Z,8.68
2019-05-30T21:17:46.919Z,5.80
2019-05-30T21:20:16.611Z,5.58
2019-05-30T21:22:46.475Z,8.70
2019-05-30T21:25:15.475Z,7.50
2019-05-30T21:27:45.241Z,7.30
2019-05-30T21:30:14.645Z,4.55
2019-05-30T21:32:44.895Z,6.55
2019-05-30T21:35:17.770Z,8.88
2019-05-30T21:37:47.900Z,10.95
2019-05-30T21:40:17.715Z,8.65
2019-05-30T21:43:02.928Z,5.95
2019-05-30T21:45:17.062Z,7.55
2019-05-30T21:47:48.833Z,5.87
2019-05-30T21:50:19.385Z,8.18
2019-05-30T21:52:48.104Z,8.53
2019-05-30T21:55:17.177Z,7.47
2019-05-30T21:57:46.023Z,8.43
2019-05-30T22:00:19.910Z,6.58
2019-05-30T22:02:54.587Z,7.87
2019-05-30T22:05:25.122Z,8.93
2019-05-30T22:07:53.776Z,9.90
2019-05-30T22:10:22.469Z,9.15
2019-05-30T22:12:51.843Z,6.62
2019-05-30T22:15:21.150Z,7.87
2019-05-30T22:17:49.918Z,6.20
2019-05-30T22:20:19.403Z,7.95
2019-05-30T22:22:48.212Z,9.98
2019-05-30T22:25:17.682Z,11.43
2019-05-30T22:27:46.424Z,9.45
2019-05-30T22:30:15.596Z,6.75
2019-05-30T22:32:44.560Z,9.25
2019-05-30T22:35:14.554Z,10.08
2019-05-30T22:37:44.702Z,9.53
2019-05-30T22:40:14.599Z,9.75
2019-05-30T22:42:44.717Z,8.50
2019-05-30T22:45:13.480Z,10.72
2019-05-30T22:47:42.066Z,11.22
2019-05-30T22:50:11.278Z,5.95
2019-05-30T22:52:40.271Z,9.90
2019-05-30T22:55:10.644Z,11.60
2019-05-30T22:57:39.261Z,12.50
2019-05-30T23:00:10.930Z,6.65
2019-05-30T23:02:41.467Z,12.00
2019-05-30T23:05:10.759Z,7.60
2019-05-30T23:07:39.377Z,9.08
2019-05-30T23:10:08.105Z,9.48
2019-05-30T23:12:38.578Z,10.68
2019-05-30T23:15:07.437Z,10.78
2019-05-30T23:17:36.039Z,10.25
2019-05-30T23:20:09.272Z,8.68
2019-05-30T23:22:39.546Z,9.15
2019-05-30T23:25:10.715Z,8.83
2019-05-30T23:27:39.311Z,8.00
2019-05-30T23:30:08.279Z,12.37
2019-05-30T23:32:36.875Z,7.90
2019-05-30T23:35:08.302Z,7.90
2019-05-30T23:37:39.242Z,9.90
2019-05-30T23:40:09.471Z,13.25
2019-05-30T23:42:39.381Z,12.25
2019-05-30T23:45:10.706Z,10.08
2019-05-30T23:47:39.479Z,9.48
2019-05-30T23:50:09.645Z,10.88
2019-05-30T23:52:38.606Z,9.08
2019-05-30T23:55:09.344Z,7.78
2019-05-30T23:57:39.259Z,10.95
